Portada
METAR-TAF:

METAR-TAF

Aeroports :

Palenque, Mèxic

latitud: 17-32-06N, longitud: 92-00-54W, altitud: 60 m

Observació

L'informe es va fer fa 13 hores i 19 minuts, a les 22:51 UTC
Vent 15 kt del Est
Temperatura 30°C
Humitat 52%
Pressió 1006 hPa
Visibilitat: 11.3 km
Escasses núvols a una alçada de 2000 ft

METAR: MMPQ 172251Z 09015KT 7SM FEW020 30/19 A2971 RMK 8/100 HZY

Hora: 06:10 (12:10 UTC)

Pronòstic

L'informe es va fer fa 7 hores i 46 minuts, a les 04:24 UTC
Pronòstic vàlid del 18 a les 06 UTC al 19 a les 06 UTC
Vent 5 kt del Est
Visibilitat: 10 km
Cel clar
A partir de les 18 a les 1800 UTC
Vent 15 kt del Est
Visibilitat: 10 km
Núvols disperses a una alçada de 2500 ft
Núvols disperses a una alçada de 8000 ft
A partir de les 19 a les 0500 UTC
Vent 6 kt del Est
Visibilitat: 10 km
Núvols disperses a una alçada de 2000 ft

TAF: MMPQ 180424Z 1806/1906 09005KT P6SM SKC FM181800 09015KT P6SM SCT025 SCT080 FM190500 09006KT P6SM SCT020

Observacions i pronòstics meteorològics de més de 4000 aeroports (METAR i TAF).

Les estacions disponibles són els punts grocs i vermells al mapa.

Posi el ratolí al punt desitjat per veure el nom de l'estació.

Feu clic per veure les observacions i els pronòstics meteorològics.

Per canviar el mapa: feu clic els botons verds amb una creu de color negre per apropar; al botó verd amb un guió per allunyar la imatge; o en les fletxes verdes per a mapes adjacents.


METAR-TAF: